BTO6174 SBPO-SBCG
Flight info
| Callsign | BTO6174 |
|---|---|
| Flight time | 1h 2m |
| Altitude | 45000 |
| Route | VUGLA DCT FIGOS |
| Aircraft | C700/L-SBDGHM1RWXY/LB2 |
Departure
| Time | 2026-04-27 01:55 |
|---|---|
| Airport | Juvenal Loureiro Cardoso Airport (SBPO) |
Arrival
| Time | 2026-04-27 02:58 |
|---|---|
| Airport | Campo Grande Airport (SBCG) |
| Time | Latitude | Longitude | Altitude | Speed | Heading |
|---|---|---|---|---|---|
| 2026-04-27 01:48 | -26.21660 | -52.69172 | 2700 ft | 0 kts | 235° |
| 2026-04-27 01:49 | -26.21653 | -52.69165 | 2700 ft | 2 kts | 197° |
| 2026-04-27 01:49 | -26.21637 | -52.69164 | 2699 ft | 2 kts | 175° |
| 2026-04-27 01:49 | -26.21620 | -52.69164 | 2698 ft | 2 kts | 196° |
| 2026-04-27 01:50 | -26.21617 | -52.69163 | 2698 ft | 0 kts | 213° |
| 2026-04-27 01:51 | -26.21621 | -52.69169 | 2699 ft | 3 kts | 234° |
| 2026-04-27 01:51 | -26.21626 | -52.69194 | 2698 ft | 4 kts | 292° |
| 2026-04-27 01:51 | -26.21599 | -52.69221 | 2698 ft | 7 kts | 323° |
| 2026-04-27 01:51 | -26.21596 | -52.69264 | 2698 ft | 5 kts | 236° |
| 2026-04-27 01:52 | -26.21626 | -52.69310 | 2699 ft | 10 kts | 234° |
| 2026-04-27 01:52 | -26.21678 | -52.69392 | 2699 ft | 16 kts | 234° |
| 2026-04-27 01:52 | -26.21754 | -52.69511 | 2696 ft | 21 kts | 234° |
| 2026-04-27 01:52 | -26.21832 | -52.69635 | 2695 ft | 20 kts | 234° |
| 2026-04-27 01:53 | -26.21918 | -52.69769 | 2692 ft | 23 kts | 234° |
| 2026-04-27 01:53 | -26.22014 | -52.69921 | 2691 ft | 22 kts | 235° |
| 2026-04-27 01:53 | -26.22052 | -52.69999 | 2690 ft | 1 kts | 245° |
| 2026-04-27 01:53 | -26.22054 | -52.70000 | 2690 ft | 0 kts | 212° |
| 2026-04-27 01:54 | -26.22058 | -52.69993 | 2690 ft | 2 kts | 110° |
| 2026-04-27 01:54 | -26.22050 | -52.69978 | 2690 ft | 0 kts | 56° |
| 2026-04-27 01:55 | -26.22016 | -52.69922 | 2691 ft | 40 kts | 55° |
| 2026-04-27 01:55 | -26.21638 | -52.69326 | 2699 ft | 142 kts | 54° |
| 2026-04-27 01:55 | -26.20929 | -52.68220 | 3121 ft | 195 kts | 56° |
| 2026-04-27 01:55 | -26.20025 | -52.66995 | 4210 ft | 217 kts | 41° |
| 2026-04-27 01:56 | -26.16924 | -52.65925 | 6839 ft | 259 kts | 351° |
| 2026-04-27 01:56 | -26.15169 | -52.66620 | 8034 ft | 277 kts | 328° |
| 2026-04-27 01:56 | -26.13497 | -52.67744 | 9780 ft | 277 kts | 325° |
| 2026-04-27 01:57 | -26.11828 | -52.68902 | 11128 ft | 294 kts | 323° |
| 2026-04-27 01:57 | -26.10040 | -52.70142 | 12455 ft | 305 kts | 323° |
| 2026-04-27 01:57 | -26.08226 | -52.71370 | 14139 ft | 306 kts | 322° |
| 2026-04-27 01:57 | -26.06404 | -52.72613 | 15583 ft | 308 kts | 322° |
| 2026-04-27 01:58 | -26.04575 | -52.73865 | 17020 ft | 310 kts | 323° |
| 2026-04-27 01:58 | -26.02731 | -52.75124 | 18411 ft | 313 kts | 323° |
| 2026-04-27 01:58 | -26.00856 | -52.76404 | 19501 ft | 319 kts | 323° |
| 2026-04-27 01:58 | -25.98950 | -52.77705 | 20610 ft | 324 kts | 323° |
| 2026-04-27 01:59 | -25.97015 | -52.79025 | 21697 ft | 329 kts | 322° |
| 2026-04-27 01:59 | -25.95045 | -52.80367 | 22733 ft | 335 kts | 322° |
| 2026-04-27 01:59 | -25.93044 | -52.81731 | 23736 ft | 340 kts | 322° |
| 2026-04-27 01:59 | -25.91011 | -52.83115 | 24567 ft | 345 kts | 322° |
| 2026-04-27 02:00 | -25.88950 | -52.84518 | 25419 ft | 350 kts | 322° |
| 2026-04-27 02:00 | -25.86862 | -52.85940 | 26260 ft | 355 kts | 322° |
| 2026-04-27 02:00 | -25.84756 | -52.87371 | 27089 ft | 360 kts | 322° |
| 2026-04-27 02:00 | -25.82589 | -52.88845 | 27905 ft | 365 kts | 322° |
| 2026-04-27 02:01 | -25.80406 | -52.90330 | 28685 ft | 371 kts | 322° |
| 2026-04-27 02:01 | -25.78194 | -52.91832 | 29460 ft | 376 kts | 323° |
| 2026-04-27 02:01 | -25.75942 | -52.93360 | 30213 ft | 381 kts | 323° |
| 2026-04-27 02:01 | -25.73670 | -52.94902 | 30896 ft | 386 kts | 323° |
| 2026-04-27 02:02 | -25.71367 | -52.96465 | 31561 ft | 390 kts | 323° |
| 2026-04-27 02:02 | -25.69040 | -52.98044 | 32177 ft | 394 kts | 323° |
| 2026-04-27 02:02 | -25.66688 | -52.99637 | 32784 ft | 398 kts | 323° |
| 2026-04-27 02:02 | -25.64318 | -53.01241 | 33422 ft | 400 kts | 323° |
| 2026-04-27 02:03 | -25.61890 | -53.02768 | 34258 ft | 401 kts | 328° |
| 2026-04-27 02:03 | -25.59314 | -53.03969 | 35010 ft | 404 kts | 334° |
| 2026-04-27 02:03 | -25.56602 | -53.04843 | 35784 ft | 406 kts | 340° |
| 2026-04-27 02:03 | -25.53794 | -53.05366 | 36527 ft | 410 kts | 346° |
| 2026-04-27 02:04 | -25.50914 | -53.05660 | 37204 ft | 408 kts | 347° |
| 2026-04-27 02:04 | -25.48100 | -53.05963 | 37835 ft | 406 kts | 347° |
| 2026-04-27 02:04 | -25.45291 | -53.06273 | 38457 ft | 403 kts | 347° |
| 2026-04-27 02:04 | -25.42501 | -53.06569 | 38952 ft | 402 kts | 347° |
| 2026-04-27 02:05 | -25.39715 | -53.06860 | 39301 ft | 403 kts | 347° |
| 2026-04-27 02:05 | -25.37839 | -53.07062 | 39570 ft | 401 kts | 347° |
| 2026-04-27 02:05 | -25.34124 | -53.07459 | 40097 ft | 400 kts | 347° |
| 2026-04-27 02:05 | -25.31355 | -53.07752 | 40456 ft | 399 kts | 347° |
| 2026-04-27 02:06 | -25.29524 | -53.07947 | 40660 ft | 399 kts | 347° |
| 2026-04-27 02:06 | -25.26759 | -53.08242 | 40969 ft | 398 kts | 347° |
| 2026-04-27 02:06 | -25.24003 | -53.08534 | 41245 ft | 398 kts | 347° |
| 2026-04-27 02:06 | -25.21248 | -53.08828 | 41522 ft | 397 kts | 348° |
| 2026-04-27 02:07 | -25.18486 | -53.09120 | 41795 ft | 397 kts | 348° |
| 2026-04-27 02:07 | -25.15735 | -53.09411 | 42051 ft | 397 kts | 348° |
| 2026-04-27 02:07 | -25.12988 | -53.09703 | 42265 ft | 397 kts | 348° |
| 2026-04-27 02:07 | -25.10238 | -53.09995 | 42496 ft | 396 kts | 348° |
| 2026-04-27 02:08 | -25.07489 | -53.10286 | 42717 ft | 396 kts | 348° |
| 2026-04-27 02:08 | -25.04751 | -53.10576 | 42953 ft | 395 kts | 348° |
| 2026-04-27 02:08 | -25.02006 | -53.10867 | 43155 ft | 395 kts | 348° |
| 2026-04-27 02:08 | -24.99265 | -53.11157 | 43340 ft | 395 kts | 348° |
| 2026-04-27 02:09 | -24.96530 | -53.11446 | 43507 ft | 395 kts | 348° |
| 2026-04-27 02:09 | -24.93788 | -53.11736 | 43687 ft | 395 kts | 348° |
| 2026-04-27 02:09 | -24.91052 | -53.12025 | 43846 ft | 395 kts | 348° |
| 2026-04-27 02:09 | -24.88314 | -53.12315 | 43978 ft | 395 kts | 348° |
| 2026-04-27 02:10 | -24.85537 | -53.12608 | 44131 ft | 395 kts | 348° |
| 2026-04-27 02:10 | -24.82830 | -53.12893 | 44283 ft | 395 kts | 348° |
| 2026-04-27 02:10 | -24.80092 | -53.13182 | 44423 ft | 395 kts | 348° |
| 2026-04-27 02:10 | -24.77345 | -53.13472 | 44566 ft | 395 kts | 348° |
| 2026-04-27 02:11 | -24.74611 | -53.13760 | 44673 ft | 395 kts | 348° |
| 2026-04-27 02:11 | -24.71870 | -53.14048 | 44764 ft | 396 kts | 348° |
| 2026-04-27 02:11 | -24.66382 | -53.14627 | 44926 ft | 396 kts | 348° |
| 2026-04-27 02:12 | -24.60819 | -53.15213 | 44964 ft | 400 kts | 348° |
| 2026-04-27 02:12 | -24.55200 | -53.15803 | 44965 ft | 405 kts | 348° |
| 2026-04-27 02:13 | -24.49518 | -53.16399 | 44967 ft | 410 kts | 349° |
| 2026-04-27 02:13 | -24.43808 | -53.16998 | 44967 ft | 414 kts | 349° |
| 2026-04-27 02:14 | -24.38053 | -53.17601 | 44973 ft | 417 kts | 349° |
| 2026-04-27 02:14 | -24.32202 | -53.18214 | 44979 ft | 421 kts | 349° |
| 2026-04-27 02:15 | -24.26335 | -53.18827 | 44980 ft | 425 kts | 349° |
| 2026-04-27 02:15 | -24.20415 | -53.19446 | 44980 ft | 428 kts | 349° |
| 2026-04-27 02:16 | -24.14419 | -53.20072 | 44975 ft | 431 kts | 349° |
| 2026-04-27 02:16 | -24.08424 | -53.20698 | 44978 ft | 434 kts | 349° |
| 2026-04-27 02:17 | -24.02384 | -53.21327 | 44981 ft | 437 kts | 349° |
| 2026-04-27 02:17 | -23.96300 | -53.21960 | 44983 ft | 440 kts | 349° |
| 2026-04-27 02:18 | -23.90182 | -53.22597 | 44982 ft | 442 kts | 349° |
| 2026-04-27 02:18 | -23.84042 | -53.23234 | 44981 ft | 444 kts | 349° |
| 2026-04-27 02:19 | -23.77917 | -53.23871 | 44981 ft | 446 kts | 349° |
| 2026-04-27 02:19 | -23.71722 | -53.24512 | 44985 ft | 447 kts | 349° |
| 2026-04-27 02:20 | -23.65523 | -53.25155 | 44986 ft | 448 kts | 349° |
| 2026-04-27 02:20 | -23.59311 | -53.25798 | 44980 ft | 448 kts | 349° |
| 2026-04-27 02:21 | -23.53095 | -53.26441 | 44975 ft | 449 kts | 349° |
| 2026-04-27 02:21 | -23.46823 | -53.27089 | 44975 ft | 449 kts | 349° |
| 2026-04-27 02:22 | -23.40600 | -53.27732 | 44971 ft | 449 kts | 349° |
| 2026-04-27 02:22 | -23.34376 | -53.28374 | 44966 ft | 449 kts | 349° |
| 2026-04-27 02:23 | -23.28143 | -53.29016 | 44965 ft | 450 kts | 349° |
| 2026-04-27 02:23 | -23.21897 | -53.29658 | 44963 ft | 450 kts | 349° |
| 2026-04-27 02:24 | -23.15613 | -53.30305 | 44970 ft | 451 kts | 349° |
| 2026-04-27 02:24 | -23.09403 | -53.30943 | 44971 ft | 451 kts | 349° |
| 2026-04-27 02:25 | -23.03111 | -53.31588 | 44963 ft | 451 kts | 349° |
| 2026-04-27 02:25 | -22.96849 | -53.32231 | 44965 ft | 451 kts | 349° |
| 2026-04-27 02:26 | -22.90595 | -53.32871 | 44959 ft | 451 kts | 349° |
| 2026-04-27 02:26 | -22.84342 | -53.33511 | 44962 ft | 451 kts | 349° |
| 2026-04-27 02:27 | -22.79093 | -53.34048 | 44961 ft | 452 kts | 349° |
| 2026-04-27 02:27 | -22.72814 | -53.34690 | 44956 ft | 452 kts | 349° |
| 2026-04-27 02:28 | -22.66544 | -53.35330 | 44960 ft | 452 kts | 349° |
| 2026-04-27 02:28 | -22.60277 | -53.35969 | 44957 ft | 452 kts | 349° |
| 2026-04-27 02:29 | -22.54004 | -53.36608 | 44956 ft | 453 kts | 349° |
| 2026-04-27 02:29 | -22.47723 | -53.37248 | 44958 ft | 453 kts | 349° |
| 2026-04-27 02:30 | -22.41438 | -53.37887 | 44955 ft | 454 kts | 350° |
| 2026-04-27 02:30 | -22.35135 | -53.38527 | 44959 ft | 454 kts | 350° |
| 2026-04-27 02:31 | -22.28836 | -53.39167 | 44957 ft | 455 kts | 350° |
| 2026-04-27 02:31 | -22.22533 | -53.39807 | 44959 ft | 455 kts | 350° |
| 2026-04-27 02:32 | -22.16206 | -53.40448 | 44961 ft | 456 kts | 350° |
| 2026-04-27 02:32 | -22.09875 | -53.41089 | 44962 ft | 457 kts | 350° |
| 2026-04-27 02:33 | -22.03497 | -53.41734 | 44964 ft | 458 kts | 350° |
| 2026-04-27 02:33 | -21.97178 | -53.42373 | 44962 ft | 459 kts | 350° |
| 2026-04-27 02:34 | -21.90801 | -53.43017 | 44961 ft | 460 kts | 350° |
| 2026-04-27 02:34 | -21.84385 | -53.43664 | 44948 ft | 460 kts | 350° |
| 2026-04-27 02:35 | -21.81194 | -53.43986 | 44389 ft | 459 kts | 350° |
| 2026-04-27 02:35 | -21.78040 | -53.44301 | 43776 ft | 450 kts | 351° |
| 2026-04-27 02:35 | -21.74950 | -53.44611 | 43194 ft | 441 kts | 350° |
| 2026-04-27 02:35 | -21.71891 | -53.44920 | 42621 ft | 432 kts | 350° |
| 2026-04-27 02:36 | -21.68916 | -53.45221 | 42057 ft | 426 kts | 351° |
| 2026-04-27 02:36 | -21.65966 | -53.45519 | 41500 ft | 425 kts | 351° |
| 2026-04-27 02:36 | -21.63012 | -53.45817 | 40940 ft | 428 kts | 351° |
| 2026-04-27 02:36 | -21.60013 | -53.46120 | 40367 ft | 434 kts | 351° |
| 2026-04-27 02:37 | -21.56998 | -53.46422 | 39791 ft | 438 kts | 351° |
| 2026-04-27 02:37 | -21.53957 | -53.46750 | 39213 ft | 438 kts | 348° |
| 2026-04-27 02:37 | -21.51001 | -53.47460 | 38631 ft | 434 kts | 340° |
| 2026-04-27 02:37 | -21.48189 | -53.48606 | 38015 ft | 430 kts | 332° |
| 2026-04-27 02:38 | -21.45583 | -53.50147 | 37452 ft | 428 kts | 324° |
| 2026-04-27 02:38 | -21.43198 | -53.52071 | 36888 ft | 429 kts | 317° |
| 2026-04-27 02:38 | -21.41082 | -53.54345 | 36323 ft | 429 kts | 309° |
| 2026-04-27 02:38 | -21.39270 | -53.56909 | 35752 ft | 429 kts | 304° |
| 2026-04-27 02:39 | -21.37549 | -53.59538 | 35188 ft | 431 kts | 304° |
| 2026-04-27 02:39 | -21.35808 | -53.62159 | 34617 ft | 432 kts | 304° |
| 2026-04-27 02:39 | -21.34069 | -53.64784 | 34046 ft | 433 kts | 304° |
| 2026-04-27 02:39 | -21.32326 | -53.67430 | 33439 ft | 434 kts | 304° |
| 2026-04-27 02:40 | -21.30583 | -53.70075 | 32865 ft | 435 kts | 304° |
| 2026-04-27 02:40 | -21.28824 | -53.72732 | 32291 ft | 437 kts | 304° |
| 2026-04-27 02:40 | -21.27056 | -53.75402 | 31710 ft | 439 kts | 304° |
| 2026-04-27 02:40 | -21.25284 | -53.78081 | 31131 ft | 441 kts | 304° |
| 2026-04-27 02:41 | -21.23509 | -53.80764 | 30552 ft | 442 kts | 304° |
| 2026-04-27 02:41 | -21.21723 | -53.83460 | 29950 ft | 444 kts | 304° |
| 2026-04-27 02:41 | -21.19938 | -53.86153 | 29336 ft | 441 kts | 305° |
| 2026-04-27 02:41 | -21.18162 | -53.88832 | 28757 ft | 437 kts | 305° |
| 2026-04-27 02:42 | -21.16405 | -53.91480 | 28185 ft | 434 kts | 305° |
| 2026-04-27 02:42 | -21.14665 | -53.94103 | 27615 ft | 430 kts | 305° |
| 2026-04-27 02:42 | -21.12917 | -53.96735 | 27043 ft | 426 kts | 305° |
| 2026-04-27 02:42 | -21.11205 | -53.99313 | 26480 ft | 423 kts | 305° |
| 2026-04-27 02:43 | -21.09501 | -54.01877 | 25926 ft | 420 kts | 305° |
| 2026-04-27 02:43 | -21.07811 | -54.04417 | 25376 ft | 417 kts | 306° |
| 2026-04-27 02:43 | -21.06132 | -54.06942 | 24827 ft | 413 kts | 306° |
| 2026-04-27 02:43 | -21.04472 | -54.09436 | 24285 ft | 410 kts | 306° |
| 2026-04-27 02:44 | -21.02821 | -54.11918 | 23744 ft | 407 kts | 306° |
| 2026-04-27 02:44 | -21.01183 | -54.14377 | 23168 ft | 403 kts | 306° |
| 2026-04-27 02:44 | -20.99564 | -54.16803 | 22639 ft | 400 kts | 306° |
| 2026-04-27 02:44 | -20.97948 | -54.19229 | 22113 ft | 398 kts | 305° |
| 2026-04-27 02:45 | -20.96344 | -54.21636 | 21588 ft | 396 kts | 305° |
| 2026-04-27 02:45 | -20.94747 | -54.24028 | 21073 ft | 394 kts | 305° |
| 2026-04-27 02:45 | -20.93154 | -54.26414 | 20545 ft | 393 kts | 305° |
| 2026-04-27 02:45 | -20.91567 | -54.28790 | 20035 ft | 391 kts | 304° |
| 2026-04-27 02:46 | -20.89998 | -54.31149 | 19520 ft | 388 kts | 304° |
| 2026-04-27 02:46 | -20.88604 | -54.33615 | 19010 ft | 386 kts | 299° |
| 2026-04-27 02:46 | -20.87246 | -54.36087 | 18502 ft | 385 kts | 300° |
| 2026-04-27 02:46 | -20.85862 | -54.38537 | 17966 ft | 383 kts | 300° |
| 2026-04-27 02:47 | -20.84498 | -54.40967 | 17454 ft | 380 kts | 300° |
| 2026-04-27 02:47 | -20.83158 | -54.43388 | 16980 ft | 376 kts | 299° |
| 2026-04-27 02:47 | -20.81825 | -54.45785 | 16528 ft | 374 kts | 300° |
| 2026-04-27 02:47 | -20.80493 | -54.48169 | 16060 ft | 372 kts | 300° |
| 2026-04-27 02:48 | -20.79598 | -54.49771 | 15754 ft | 371 kts | 300° |
| 2026-04-27 02:48 | -20.77911 | -54.52791 | 15173 ft | 368 kts | 300° |
| 2026-04-27 02:48 | -20.76601 | -54.55140 | 14719 ft | 367 kts | 300° |
| 2026-04-27 02:48 | -20.75732 | -54.56691 | 14421 ft | 365 kts | 300° |
| 2026-04-27 02:49 | -20.74222 | -54.58869 | 13953 ft | 365 kts | 310° |
| 2026-04-27 02:49 | -20.72382 | -54.60700 | 13448 ft | 354 kts | 320° |
| 2026-04-27 02:49 | -20.70375 | -54.62093 | 12994 ft | 336 kts | 330° |
| 2026-04-27 02:49 | -20.68280 | -54.63067 | 12563 ft | 321 kts | 339° |
| 2026-04-27 02:50 | -20.66156 | -54.63652 | 12147 ft | 310 kts | 348° |
| 2026-04-27 02:50 | -20.64047 | -54.63878 | 11752 ft | 301 kts | 356° |
| 2026-04-27 02:50 | -20.61977 | -54.63771 | 11359 ft | 295 kts | 5° |
| 2026-04-27 02:50 | -20.59964 | -54.63349 | 10974 ft | 295 kts | 13° |
| 2026-04-27 02:51 | -20.58028 | -54.62618 | 10588 ft | 295 kts | 21° |
| 2026-04-27 02:51 | -20.56205 | -54.61594 | 10197 ft | 297 kts | 30° |
| 2026-04-27 02:51 | -20.54545 | -54.60300 | 9810 ft | 296 kts | 38° |
| 2026-04-27 02:51 | -20.53034 | -54.58828 | 9400 ft | 293 kts | 40° |
| 2026-04-27 02:52 | -20.51524 | -54.57381 | 9015 ft | 289 kts | 39° |
| 2026-04-27 02:52 | -20.50039 | -54.55966 | 8634 ft | 283 kts | 39° |
| 2026-04-27 02:52 | -20.48593 | -54.54567 | 8257 ft | 277 kts | 40° |
| 2026-04-27 02:52 | -20.47179 | -54.53200 | 7896 ft | 272 kts | 39° |
| 2026-04-27 02:53 | -20.45788 | -54.51865 | 7539 ft | 267 kts | 39° |
| 2026-04-27 02:53 | -20.44415 | -54.50547 | 7192 ft | 264 kts | 39° |
| 2026-04-27 02:53 | -20.42944 | -54.49405 | 6832 ft | 260 kts | 21° |
| 2026-04-27 02:53 | -20.41220 | -54.48938 | 6505 ft | 255 kts | 2° |
| 2026-04-27 02:54 | -20.39481 | -54.49114 | 6154 ft | 249 kts | 342° |
| 2026-04-27 02:54 | -20.37932 | -54.49889 | 5812 ft | 245 kts | 324° |
| 2026-04-27 02:54 | -20.36744 | -54.51148 | 5498 ft | 239 kts | 305° |
| 2026-04-27 02:54 | -20.36010 | -54.52734 | 5157 ft | 240 kts | 286° |
| 2026-04-27 02:55 | -20.35803 | -54.54477 | 4849 ft | 238 kts | 269° |
| 2026-04-27 02:55 | -20.36140 | -54.56194 | 4536 ft | 239 kts | 250° |
| 2026-04-27 02:55 | -20.36991 | -54.57719 | 4219 ft | 240 kts | 231° |
| 2026-04-27 02:55 | -20.38190 | -54.58930 | 3912 ft | 232 kts | 223° |
| 2026-04-27 02:56 | -20.39378 | -54.60054 | 3597 ft | 226 kts | 224° |
| 2026-04-27 02:56 | -20.40513 | -54.61149 | 3300 ft | 208 kts | 224° |
| 2026-04-27 02:56 | -20.41523 | -54.62119 | 3042 ft | 181 kts | 224° |
| 2026-04-27 02:56 | -20.42367 | -54.62927 | 2830 ft | 144 kts | 224° |
| 2026-04-27 02:57 | -20.43072 | -54.63615 | 2653 ft | 139 kts | 224° |
| 2026-04-27 02:57 | -20.43792 | -54.64302 | 2472 ft | 141 kts | 223° |
| 2026-04-27 02:57 | -20.44521 | -54.65013 | 2267 ft | 140 kts | 223° |
| 2026-04-27 02:57 | -20.45261 | -54.65698 | 2081 ft | 142 kts | 222° |
| 2026-04-27 02:58 | -20.45986 | -54.66415 | 1883 ft | 142 kts | 224° |
| 2026-04-27 02:58 | -20.46653 | -54.67065 | 1833 ft | 111 kts | 223° |
| 2026-04-27 02:58 | -20.46957 | -54.67362 | 1832 ft | 20 kts | 224° |
| 2026-04-27 02:58 | -20.46983 | -54.67410 | 1832 ft | 4 kts | 290° |
| 2026-04-27 02:59 | -20.46956 | -54.67442 | 1832 ft | 8 kts | 315° |
| 2026-04-27 02:59 | -20.46915 | -54.67492 | 1832 ft | 11 kts | 313° |
| 2026-04-27 02:59 | -20.46850 | -54.67513 | 1831 ft | 12 kts | 36° |
| 2026-04-27 02:59 | -20.46777 | -54.67444 | 1831 ft | 16 kts | 41° |
| 2026-04-27 03:00 | -20.46690 | -54.67361 | 1831 ft | 19 kts | 42° |
| 2026-04-27 03:00 | -20.46584 | -54.67260 | 1831 ft | 22 kts | 41° |
| 2026-04-27 03:00 | -20.46478 | -54.67155 | 1831 ft | 15 kts | 41° |
| 2026-04-27 03:00 | -20.46414 | -54.67103 | 1830 ft | 12 kts | 25° |
| 2026-04-27 03:01 | -20.46323 | -54.67096 | 1831 ft | 15 kts | 352° |
| 2026-04-27 03:01 | -20.46207 | -54.67111 | 1831 ft | 18 kts | 353° |
| 2026-04-27 03:01 | -20.46069 | -54.67129 | 1831 ft | 21 kts | 353° |
| 2026-04-27 03:01 | -20.45951 | -54.67142 | 1831 ft | 13 kts | 353° |
| 2026-04-27 03:02 | -20.45910 | -54.67163 | 1831 ft | 6 kts | 285° |
| 2026-04-27 03:02 | -20.45922 | -54.67207 | 1831 ft | 6 kts | 288° |
| 2026-04-27 03:02 | -20.45882 | -54.67223 | 1831 ft | 8 kts | 37° |
| 2026-04-27 03:02 | -20.45865 | -54.67209 | 1831 ft | 2 kts | 18° |
| 2026-04-27 03:03 | -20.45853 | -54.67217 | 1831 ft | 1 kts | 309° |
| 2026-04-27 03:03 | -20.45852 | -54.67218 | 1831 ft | 0 kts | 310° |